Time;durP1;ratioP1;P1;durP2;ratioP2;P2;SDS_P1;SDS_P2;PMS_P1;PMS_P2;Temp;Humidity;BMP_temperature;BMP_pressure;BME280_temperature;BME280_humidity;BME280_pressure;Samples;Min_cycle;Max_cycle;Signal;HPM_P1;HPM_P2
2022/04/06 00:01:47;;;;;;;24.43;10.87;;;;;;;39.67;43.61;100955.72;4768006;30;20456;-70
2022/04/06 00:04:14;;;;;;;22.23;10.43;;;;;;;39.67;43.58;100950.28;4766736;30;20516;-70
2022/04/06 00:06:40;;;;;;;16.43;10.10;;;;;;;39.61;43.52;100954.28;4768194;30;20916;-70
2022/04/06 00:09:06;;;;;;;27.97;10.13;;;;;;;39.65;43.55;100954.44;4767978;30;20427;-70
2022/04/06 00:11:33;;;;;;;23.13;10.50;;;;;;;39.58;43.36;100945.91;4768090;30;20424;-69
2022/04/06 00:13:59;;;;;;;32.10;9.83;;;;;;;39.63;43.40;100933.03;4767931;30;20428;-69
2022/04/06 00:16:25;;;;;;;17.80;11.40;;;;;;;39.53;43.61;100930.56;4768104;30;20426;-69
2022/04/06 00:18:52;;;;;;;19.17;9.57;;;;;;;39.57;43.47;100923.41;4767984;30;20460;-71
2022/04/06 00:21:19;;;;;;;18.17;8.97;;;;;;;39.43;43.74;100926.25;4769201;30;20419;-69
2022/04/06 00:23:45;;;;;;;19.13;10.60;;;;;;;39.56;43.70;100910.94;4767796;30;20498;-69
2022/04/06 00:26:11;;;;;;;23.90;10.90;;;;;;;39.46;43.88;100901.16;4767960;30;20523;-70
2022/04/06 00:28:37;;;;;;;22.20;7.50;;;;;;;39.37;44.27;100884.09;4767907;30;20955;-71
2022/04/06 00:31:03;;;;;;;30.13;10.80;;;;;;;39.38;44.52;100882.16;4767911;30;20428;-70
2022/04/06 00:33:29;;;;;;;35.23;14.03;;;;;;;39.38;44.15;100872.09;4769052;30;20420;-71
2022/04/06 00:35:56;;;;;;;23.30;10.97;;;;;;;39.57;43.71;100868.31;4768399;30;20467;-70
2022/04/06 00:38:22;;;;;;;29.33;9.47;;;;;;;39.44;44.09;100872.75;4767663;30;20596;-70
2022/04/06 00:40:48;;;;;;;27.60;10.10;;;;;;;39.14;44.67;100877.13;4767786;30;20478;-70
2022/04/06 00:43:15;;;;;;;23.60;10.80;;;;;;;39.06;45.17;100875.97;4767771;30;20435;-71
2022/04/06 00:45:43;;;;;;;17.03;9.23;;;;;;;39.22;44.65;100860.09;4767757;30;20428;-70
2022/04/06 00:48:10;;;;;;;35.03;12.37;;;;;;;39.29;44.66;100862.34;4767753;30;20429;-70
2022/04/06 00:50:37;;;;;;;20.07;10.23;;;;;;;39.25;44.61;100850.53;4767785;30;20436;-70
2022/04/06 00:53:04;;;;;;;25.20;9.83;;;;;;;39.26;44.52;100841.28;4767640;30;20428;-70
2022/04/06 00:55:38;;;;;;;33.50;11.70;;;;;;;39.34;44.51;100818.78;4753012;30;20467;-71
2022/04/06 00:58:05;;;;;;;21.17;12.10;;;;;;;39.33;44.11;100812.53;4752764;30;21086;-71
2022/04/06 01:00:31;;;;;;;29.13;9.90;;;;;;;39.35;44.54;100809.50;4767619;30;20790;-70
2022/04/06 01:02:58;;;;;;;24.53;9.53;;;;;;;39.36;44.56;100809.22;4767336;30;20542;-69
2022/04/06 01:05:25;;;;;;;28.33;9.33;;;;;;;39.41;44.36;100803.63;4752993;30;20471;-69
2022/04/06 01:07:53;;;;;;;23.20;10.70;;;;;;;39.36;43.88;100800.28;4767621;30;20517;-71
2022/04/06 01:10:19;;;;;;;21.03;10.90;;;;;;;39.15;44.10;100798.13;4752649;30;20973;-69
2022/04/06 01:12:47;;;;;;;27.47;10.30;;;;;;;39.07;44.16;100798.91;4768869;30;20447;-70
2022/04/06 01:15:14;;;;;;;24.23;11.60;;;;;;;39.23;43.99;100789.25;4752898;30;20458;-70
2022/04/06 01:17:41;;;;;;;22.87;8.47;;;;;;;39.36;43.70;100792.94;4753086;30;20455;-71
2022/04/06 01:20:09;;;;;;;26.30;11.03;;;;;;;39.43;43.54;100787.81;4752816;30;20436;-71
2022/04/06 01:22:36;;;;;;;19.13;11.20;;;;;;;39.16;44.29;100775.31;4752664;30;21008;-69
2022/04/06 01:25:05;;;;;;;23.93;11.40;;;;;;;39.07;44.64;100779.91;4767330;30;20839;-71
2022/04/06 01:27:31;;;;;;;20.67;8.30;;;;;;;38.59;45.00;100777.97;4768680;30;20411;-71
2022/04/06 01:29:57;;;;;;;20.60;8.70;;;;;;;38.83;44.70;100779.53;4767284;30;20838;-71
2022/04/06 01:32:26;;;;;;;21.77;10.43;;;;;;;38.60;45.00;100774.16;4767381;30;20867;-69
2022/04/06 01:34:54;;;;;;;24.57;10.20;;;;;;;38.65;45.42;100771.31;4768068;30;20517;-70
2022/04/06 01:37:21;;;;;;;31.83;12.43;;;;;;;38.58;45.71;100765.53;4768662;30;20408;-70
2022/04/06 01:39:49;;;;;;;37.50;11.00;;;;;;;38.66;45.50;100758.53;4752494;30;20472;-69
2022/04/06 01:42:18;;;;;;;26.20;11.57;;;;;;;38.87;45.39;100756.09;4767360;30;20528;-69
2022/04/06 01:44:46;;;;;;;32.50;11.33;;;;;;;38.97;44.70;100753.06;4768440;30;20413;-69
2022/04/06 01:47:17;;;;;;;31.87;11.23;;;;;;;39.04;44.07;100753.44;4767033;30;20920;-69
2022/04/06 01:52:30;;;;;;;29.00;10.90;;;;;;;38.81;44.76;100739.19;4770646;30;21021;-69
2022/04/06 01:55:02;;;;;;;25.63;11.47;;;;;;;38.93;44.51;100730.44;4770387;30;20440;-69
2022/04/06 01:57:29;;;;;;;28.73;8.23;;;;;;;38.85;44.70;100725.78;4770259;30;20491;-71
2022/04/06 01:59:56;;;;;;;18.70;9.30;;;;;;;38.84;44.79;100737.75;4755596;30;20467;-71
2022/04/06 02:02:24;;;;;;;27.43;9.40;;;;;;;38.70;45.04;100735.91;4769900;30;20491;-70
2022/04/06 02:04:50;;;;;;;27.30;8.70;;;;;;;38.72;45.66;100742.97;4755378;30;20463;-70
2022/04/06 02:07:16;;;;;;;26.13;9.67;;;;;;;38.89;44.53;100734.88;4770121;30;20593;-70
2022/04/06 02:09:42;;;;;;;18.70;9.40;;;;;;;38.78;44.83;100736.28;4770032;30;20840;-70
2022/04/06 02:12:10;;;;;;;18.83;12.00;;;;;;;38.81;44.81;100730.25;4769936;30;20791;-70
2022/04/06 02:14:41;;;;;;;33.17;10.47;;;;;;;38.78;44.90;100728.16;4771348;30;20400;-70
2022/04/06 02:17:09;;;;;;;25.87;12.73;;;;;;;38.44;45.19;100729.63;4769908;30;20432;-71
2022/04/06 02:19:36;;;;;;;29.00;12.00;;;;;;;38.56;45.60;100732.53;4771164;30;21035;-71
2022/04/06 02:22:04;;;;;;;31.70;11.70;;;;;;;38.69;45.11;100745.16;4769602;30;21003;-70
2022/04/06 02:24:31;;;;;;;27.00;9.37;;;;;;;38.68;44.89;100746.28;4769810;30;20447;-71
2022/04/06 02:26:57;;;;;;;23.77;11.83;;;;;;;38.64;45.29;100745.31;4769743;30;20467;-70
2022/04/06 02:29:23;;;;;;;25.77;9.13;;;;;;;38.81;45.29;100741.09;4769760;30;20428;-70
2022/04/06 02:31:50;;;;;;;19.70;10.73;;;;;;;38.85;44.90;100742.03;4769631;30;20424;-70
2022/04/06 02:34:16;;;;;;;33.43;11.17;;;;;;;38.90;45.19;100744.63;4769676;30;20514;-69
2022/04/06 02:36:42;;;;;;;29.17;10.13;;;;;;;38.96;45.03;100748.78;4769501;30;20518;-68
2022/04/06 02:39:09;;;;;;;28.27;10.80;;;;;;;39.01;44.89;100753.25;4769533;30;20558;-69
2022/04/06 02:41:35;;;;;;;16.73;8.50;;;;;;;38.91;44.36;100752.44;4769546;30;20424;-69
2022/04/06 02:44:01;;;;;;;25.40;9.47;;;;;;;38.76;45.04;100743.94;4769592;30;20439;-71
2022/04/06 02:46:27;;;;;;;28.00;10.63;;;;;;;38.89;45.12;100743.81;4769468;30;20898;-70
2022/04/06 02:48:53;;;;;;;16.53;9.17;;;;;;;38.99;44.87;100745.44;4770160;30;20458;-69
2022/04/06 02:51:19;;;;;;;25.00;10.20;;;;;;;39.08;44.71;100757.09;4768694;30;20489;-70
2022/04/06 02:53:45;;;;;;;28.43;10.27;;;;;;;39.13;44.26;100751.53;4769356;30;20523;-71
2022/04/06 02:56:11;;;;;;;22.73;10.17;;;;;;;38.95;44.62;100752.59;4769322;30;20451;-71
2022/04/06 02:58:38;;;;;;;23.30;12.00;;;;;;;39.07;44.43;100760.94;4768895;30;20854;-70
2022/04/06 03:01:04;;;;;;;31.87;12.00;;;;;;;39.05;44.77;100765.09;4753759;30;20456;-69
2022/04/06 03:03:30;;;;;;;28.17;9.37;;;;;;;39.08;44.27;100767.94;4769203;30;20432;-70
2022/04/06 03:05:56;;;;;;;21.40;9.63;;;;;;;38.96;44.51;100773.19;4769172;30;20434;-71
2022/04/06 03:08:22;;;;;;;37.40;10.43;;;;;;;38.82;44.71;100775.22;4770132;30;20960;-71
2022/04/06 03:10:48;;;;;;;21.30;10.10;;;;;;;38.87;44.43;100769.66;4769175;30;20455;-70
2022/04/06 03:13:14;;;;;;;17.10;7.80;;;;;;;39.09;44.07;100774.16;4769185;30;20404;-70
2022/04/06 03:15:40;;;;;;;53.13;11.93;;;;;;;39.18;43.71;100775.81;4770292;30;20500;-70
2022/04/06 03:18:06;;;;;;;22.60;9.00;;;;;;;39.12;43.83;100776.25;4768911;30;20474;-70
2022/04/06 03:20:33;;;;;;;30.90;11.13;;;;;;;39.14;44.08;100793.81;4768927;30;20432;-69
2022/04/06 03:22:59;;;;;;;18.33;8.97;;;;;;;39.07;44.16;100801.63;4768728;30;21093;-69
2022/04/06 03:25:25;;;;;;;25.53;10.70;;;;;;;39.13;44.16;100803.06;4768816;30;20819;-69
2022/04/06 03:27:51;;;;;;;26.47;13.33;;;;;;;39.24;43.91;100803.59;4768831;30;20424;-71
2022/04/06 03:30:17;;;;;;;26.93;14.23;;;;;;;39.29;43.81;100810.78;4768703;30;20803;-70
2022/04/06 03:32:43;;;;;;;23.73;10.40;;;;;;;39.32;43.88;100815.59;4753943;30;20432;-71
2022/04/06 03:35:10;;;;;;;26.70;10.30;;;;;;;39.27;43.68;100811.09;4768572;30;20456;-71
2022/04/06 03:37:36;;;;;;;25.13;12.10;;;;;;;39.22;43.59;100824.81;4769807;30;20435;-70
2022/04/06 03:40:05;;;;;;;23.63;9.90;;;;;;;39.21;43.88;100813.16;4768071;30;20468;-70
2022/04/06 03:42:34;;;;;;;26.30;12.47;;;;;;;39.19;44.19;100809.97;4769644;30;20455;-70
2022/04/06 03:45:01;;;;;;;17.60;9.70;;;;;;;39.27;43.91;100811.09;4768122;30;20439;-71
2022/04/06 03:47:36;;;;;;;26.27;10.47;;;;;;;39.28;43.55;100818.13;4753619;30;20521;-70
2022/04/06 03:50:04;;;;;;;25.90;12.13;;;;;;;39.30;43.79;100820.53;4753836;30;20470;-69
2022/04/06 03:52:31;;;;;;;22.93;8.70;;;;;;;39.31;43.88;100830.28;4753923;30;20432;-70
2022/04/06 03:54:57;;;;;;;27.67;10.97;;;;;;;39.29;43.86;100829.78;4769483;30;20475;-70
2022/04/06 03:57:25;;;;;;;22.47;10.07;;;;;;;39.29;43.98;100818.91;4768402;30;20518;-70
2022/04/06 03:59:52;;;;;;;22.80;10.60;;;;;;;39.25;44.03;100820.69;4768277;30;20555;-70
2022/04/06 04:02:18;;;;;;;23.53;10.83;;;;;;;39.31;43.82;100814.00;4768294;30;20482;-70
2022/04/06 04:04:44;;;;;;;24.33;11.33;;;;;;;39.36;43.19;100808.41;4768307;30;20436;-71
2022/04/06 04:07:10;;;;;;;26.17;10.80;;;;;;;39.33;43.61;100826.13;4768118;30;20434;-71
2022/04/06 04:09:37;;;;;;;15.70;7.30;;;;;;;39.36;43.43;100819.28;4768027;30;20959;-69
2022/04/06 04:12:05;;;;;;;21.07;9.37;;;;;;;39.40;43.32;100817.50;4767963;30;20456;-70
2022/04/06 04:14:34;;;;;;;20.00;9.13;;;;;;;39.36;43.30;100820.06;4768059;30;20444;-69
2022/04/06 04:17:01;;;;;;;19.80;11.47;;;;;;;39.39;43.49;100821.34;4767998;30;21007;-69
2022/04/06 04:19:28;;;;;;;21.87;11.63;;;;;;;39.38;43.53;100822.47;4767957;30;20507;-70
2022/04/06 04:21:54;;;;;;;28.37;9.63;;;;;;;39.37;43.65;100827.09;4767949;30;20447;-69
2022/04/06 04:24:21;;;;;;;25.33;8.97;;;;;;;39.35;43.35;100829.34;4753197;30;20428;-70
2022/04/06 04:26:47;;;;;;;20.33;9.70;;;;;;;39.37;43.31;100826.28;4753368;30;20427;-70
2022/04/06 04:29:13;;;;;;;13.70;8.23;;;;;;;39.36;43.40;100822.78;4768057;30;20526;-71
2022/04/06 04:31:39;;;;;;;22.33;9.87;;;;;;;39.37;43.24;100827.09;4767791;30;20424;-71
2022/04/06 04:34:05;;;;;;;26.40;11.60;;;;;;;39.27;43.39;100824.66;4767940;30;20490;-71
2022/04/06 04:36:31;;;;;;;24.30;10.80;;;;;;;39.35;43.42;100823.06;4738603;30;20808;-70
2022/04/06 04:38:57;;;;;;;13.50;8.57;;;;;;;39.37;43.51;100823.56;4767759;30;20476;-69
2022/04/06 04:41:24;;;;;;;18.90;9.87;;;;;;;39.35;43.25;100813.03;4767870;30;20432;-70
2022/04/06 04:43:50;;;;;;;25.47;9.93;;;;;;;39.24;43.69;100809.03;4753007;30;20435;-69
2022/04/06 04:46:20;;;;;;;21.10;10.33;;;;;;;39.26;43.40;100803.28;4767791;30;20420;-69
2022/04/06 04:48:46;;;;;;;19.13;8.83;;;;;;;39.29;43.61;100795.31;4767708;30;20436;-70
2022/04/06 04:51:13;;;;;;;17.90;9.00;;;;;;;39.22;43.43;100801.19;4767849;30;20428;-69
2022/04/06 04:53:41;;;;;;;19.20;8.87;;;;;;;39.11;43.77;100810.72;4752936;30;20455;-70
2022/04/06 04:56:08;;;;;;;16.73;9.10;;;;;;;39.18;43.63;100815.72;4767744;30;20436;-70
2022/04/06 04:58:34;;;;;;;21.40;10.50;;;;;;;39.27;43.63;100819.25;4768932;30;20460;-70
2022/04/06 05:01:00;;;;;;;21.77;10.27;;;;;;;39.16;44.02;100820.66;4767543;30;20444;-70
2022/04/06 05:03:27;;;;;;;23.87;10.30;;;;;;;39.21;43.90;100831.34;4767682;30;20797;-70
2022/04/06 05:05:54;;;;;;;22.00;9.87;;;;;;;39.12;44.09;100850.31;4767734;30;20432;-69
2022/04/06 05:08:21;;;;;;;18.77;9.70;;;;;;;39.14;43.97;100866.25;4768816;30;20862;-70
2022/04/06 05:10:47;;;;;;;40.27;10.93;;;;;;;39.23;43.97;100881.50;4767737;30;20424;-70
2022/04/06 05:13:14;;;;;;;24.50;11.37;;;;;;;39.25;44.11;100873.03;4768884;30;20439;-69
2022/04/06 05:15:40;;;;;;;11.83;9.40;;;;;;;39.21;43.87;100883.69;4767680;30;20497;-69
2022/04/06 05:18:07;;;;;;;25.83;11.43;;;;;;;39.12;43.92;100874.72;4768847;30;20542;-69
2022/04/06 05:20:33;;;;;;;15.23;7.77;;;;;;;39.22;43.30;100881.78;4767550;30;20435;-69
2022/04/06 05:22:59;;;;;;;19.73;8.77;;;;;;;39.20;43.46;100878.59;4753985;30;20567;-69
2022/04/06 05:25:25;;;;;;;29.23;11.07;;;;;;;39.27;43.59;100880.84;4770917;30;20515;-70
2022/04/06 05:27:54;;;;;;;26.40;11.90;;;;;;;39.23;43.91;100878.78;4770871;30;20464;-70
2022/04/06 05:30:24;;;;;;;34.73;10.10;;;;;;;39.25;43.38;100883.88;4770912;30;20907;-69
2022/04/06 05:32:53;;;;;;;18.90;9.53;;;;;;;39.13;43.51;100879.03;4770483;30;20456;-69
2022/04/06 05:35:20;;;;;;;19.77;10.20;;;;;;;39.20;43.41;100870.47;4770756;30;20435;-69
2022/04/06 05:37:46;;;;;;;32.13;13.00;;;;;;;39.28;43.51;100874.31;4771264;30;20431;-69
2022/04/06 05:40:15;;;;;;;16.60;9.10;;;;;;;39.27;43.66;100880.84;4771819;30;20486;-69
2022/04/06 05:42:41;;;;;;;29.77;11.07;;;;;;;39.25;43.73;100873.03;4770532;30;20432;-70
2022/04/06 05:45:08;;;;;;;17.37;9.10;;;;;;;39.36;43.47;100874.34;4771810;30;20994;-69
2022/04/06 05:47:36;;;;;;;27.43;10.47;;;;;;;39.33;43.70;100877.69;4770086;30;20486;-69
2022/04/06 05:50:04;;;;;;;16.80;8.80;;;;;;;39.29;43.51;100882.16;4767851;30;20578;-69
2022/04/06 05:52:31;;;;;;;22.63;10.50;;;;;;;39.34;43.59;100886.63;4770365;30;20431;-69
2022/04/06 05:54:57;;;;;;;22.43;12.60;;;;;;;39.39;43.63;100900.03;4770299;30;20948;-70
2022/04/06 05:57:23;;;;;;;29.63;11.70;;;;;;;39.42;43.57;100911.09;4770003;30;20843;-71
2022/04/06 05:59:49;;;;;;;29.60;10.80;;;;;;;39.39;43.46;100911.69;4770319;30;20483;-71
2022/04/06 06:02:16;;;;;;;27.03;12.43;;;;;;;39.41;43.72;100917.63;4769657;30;20464;-72
2022/04/06 06:04:42;;;;;;;20.47;9.40;;;;;;;39.37;43.83;100918.56;4770259;30;20464;-69
2022/04/06 06:07:08;;;;;;;34.40;11.43;;;;;;;39.41;43.62;100919.50;4771132;30;20420;-70
2022/04/06 06:09:35;;;;;;;17.97;11.20;;;;;;;39.30;43.51;100923.66;4769845;30;20424;-70
2022/04/06 06:12:02;;;;;;;15.50;7.90;;;;;;;39.20;43.35;100928.25;4769705;30;20448;-70
2022/04/06 06:14:29;;;;;;;20.30;10.27;;;;;;;39.15;44.01;100931.06;4769451;30;20483;-70
2022/04/06 06:16:58;;;;;;;23.43;10.07;;;;;;;39.13;44.15;100935.22;4769670;30;20443;-71
2022/04/06 06:19:25;;;;;;;17.03;8.50;;;;;;;39.26;43.87;100941.66;4770080;30;21023;-70
2022/04/06 06:21:51;;;;;;;19.47;9.27;;;;;;;39.16;44.00;100946.25;4769235;30;20522;-69
2022/04/06 06:24:19;;;;;;;20.07;9.70;;;;;;;39.18;44.17;100941.31;4753292;30;20429;-69
2022/04/06 06:26:45;;;;;;;22.53;10.63;;;;;;;39.23;43.88;100937.69;4769374;30;21001;-69
2022/04/06 06:29:13;;;;;;;19.47;9.10;;;;;;;39.22;43.53;100942.28;4769478;30;20448;-69
2022/04/06 06:31:39;;;;;;;22.97;12.47;;;;;;;39.21;43.57;100935.25;4769392;30;20439;-69
2022/04/06 06:34:06;;;;;;;32.77;10.70;;;;;;;39.27;43.93;100941.34;4769323;30;20424;-69
2022/04/06 06:36:32;;;;;;;21.80;9.30;;;;;;;39.28;43.45;100948.38;4768301;30;20455;-69
2022/04/06 06:38:59;;;;;;;23.30;9.80;;;;;;;39.32;43.27;100959.41;4769270;30;20464;-70
2022/04/06 06:41:25;;;;;;;29.60;10.37;;;;;;;39.36;43.52;100963.09;4769700;30;20430;-70
2022/04/06 06:43:53;;;;;;;29.63;11.13;;;;;;;39.44;43.37;100981.34;4769610;30;20455;-71
2022/04/06 06:46:21;;;;;;;43.90;12.10;;;;;;;39.43;43.41;100991.38;4770627;30;20437;-70
2022/04/06 06:48:48;;;;;;;33.57;10.67;;;;;;;39.52;43.18;101004.19;4754874;30;20423;-70
2022/04/06 06:51:16;;;;;;;35.30;11.80;;;;;;;39.57;43.05;101017.63;4769431;30;20424;-71
2022/04/06 06:53:42;;;;;;;27.00;10.90;;;;;;;39.63;43.12;101022.63;4769520;30;20481;-72
2022/04/06 06:56:09;;;;;;;19.73;10.63;;;;;;;39.65;42.93;101017.66;4769388;30;20939;-71
2022/04/06 06:58:35;;;;;;;27.03;10.60;;;;;;;39.67;42.86;101010.03;4769305;30;20847;-71
2022/04/06 07:01:01;;;;;;;23.37;10.97;;;;;;;39.60;42.77;101006.97;4770553;30;20486;-72
2022/04/06 07:03:28;;;;;;;29.40;12.30;;;;;;;39.59;42.61;101013.47;4768762;30;20428;-72
2022/04/06 07:05:54;;;;;;;22.67;10.67;;;;;;;39.61;42.38;101035.72;4768653;30;20492;-71
2022/04/06 07:08:20;;;;;;;29.33;10.83;;;;;;;39.72;42.08;101037.03;4768482;30;20485;-67
2022/04/06 07:10:48;;;;;;;27.30;10.73;;;;;;;39.75;42.07;101036.41;4768825;30;20424;-67
2022/04/06 07:13:16;;;;;;;22.50;10.37;;;;;;;39.75;42.25;101033.69;4767925;30;20435;-67
2022/04/06 07:15:43;;;;;;;20.63;8.67;;;;;;;39.74;42.33;101053.03;4765602;30;20805;-70
2022/04/06 07:18:11;;;;;;;24.50;11.97;;;;;;;39.79;42.18;101058.31;4768175;30;20474;-70
2022/04/06 07:20:38;;;;;;;23.97;11.07;;;;;;;39.87;42.02;101068.41;4768196;30;20452;-69
2022/04/06 07:23:05;;;;;;;30.30;13.70;;;;;;;39.87;41.93;101081.97;4769514;30;20463;-69
2022/04/06 07:25:32;;;;;;;26.87;10.80;;;;;;;39.91;41.88;101095.75;4767910;30;20427;-71
2022/04/06 07:27:58;;;;;;;25.13;10.30;;;;;;;39.93;41.76;101098.94;4767321;30;20848;-72
2022/04/06 07:30:24;;;;;;;22.50;11.70;;;;;;;39.95;41.48;101110.28;4767610;30;20436;-72
2022/04/06 07:32:50;;;;;;;25.50;11.17;;;;;;;39.89;41.34;101138.69;4767891;30;20428;-71
2022/04/06 07:35:17;;;;;;;22.87;10.40;;;;;;;39.82;42.12;101190.75;4768318;30;21015;-72
2022/04/06 07:37:47;;;;;;;53.63;17.17;;;;;;;39.45;41.07;101252.47;4768543;30;20442;-72
2022/04/06 07:40:15;;;;;;;41.57;10.60;;;;;;;38.65;38.05;101244.94;4767994;30;20532;-69
2022/04/06 07:42:42;;;;;;;42.80;14.53;;;;;;;37.80;40.47;101254.28;4768574;30;20432;-72
2022/04/06 07:45:19;;;;;;;49.27;19.57;;;;;;;36.82;42.37;101273.72;4767509;30;20452;-70
2022/04/06 07:47:47;;;;;;;57.97;26.07;;;;;;;36.01;43.60;101274.50;4765939;30;20420;-70
2022/04/06 07:50:14;;;;;;;40.60;16.03;;;;;;;35.48;44.22;101244.63;4768024;30;20475;-71
2022/04/06 07:52:41;;;;;;;43.17;16.13;;;;;;;35.51;44.21;101231.41;4768527;30;20460;-71
2022/04/06 07:55:09;;;;;;;46.20;19.03;;;;;;;35.66;44.42;101208.09;4763062;30;20441;-71
2022/04/06 07:57:36;;;;;;;38.13;15.17;;;;;;;35.66;43.77;101210.78;4766458;30;20907;-68
2022/04/06 08:00:08;;;;;;;37.97;16.50;;;;;;;35.44;44.21;101201.25;4766917;30;20521;-69
2022/04/06 08:02:34;;;;;;;41.93;17.33;;;;;;;35.59;44.04;101199.50;4749855;30;20449;-69
2022/04/06 08:05:01;;;;;;;36.43;11.77;;;;;;;35.70;44.09;101177.56;4767697;30;20813;-71
2022/04/06 08:07:27;;;;;;;36.33;13.80;;;;;;;36.09;43.09;101192.06;4767967;30;20432;-72
2022/04/06 08:09:53;;;;;;;33.03;13.77;;;;;;;36.06;43.46;101175.38;4768172;30;20444;-73
2022/04/06 08:12:19;;;;;;;26.87;10.70;;;;;;;36.19;42.74;101179.28;4768190;30;20450;-70
2022/04/06 08:14:47;;;;;;;26.50;9.50;;;;;;;36.19;43.03;101184.69;4769352;30;20459;-72
2022/04/06 08:17:13;;;;;;;29.40;12.90;;;;;;;36.19;42.55;101198.19;4766779;30;20472;-72
2022/04/06 08:19:39;;;;;;;21.00;9.50;;;;;;;36.50;42.46;101201.38;4768265;30;20559;-71
2022/04/06 08:22:05;;;;;;;26.70;11.23;;;;;;;36.38;42.17;101208.25;4767255;30;20495;-73
2022/04/06 08:24:31;;;;;;;29.77;11.90;;;;;;;36.46;42.35;101204.94;4767921;30;20987;-71
2022/04/06 08:26:57;;;;;;;21.67;11.40;;;;;;;36.64;42.96;101216.91;4767094;30;20488;-72
2022/04/06 08:29:23;;;;;;;31.10;14.10;;;;;;;36.78;42.56;101228.63;4767051;30;20523;-71
2022/04/06 08:31:49;;;;;;;19.47;11.50;;;;;;;36.74;42.38;101233.00;4767132;30;20444;-74
2022/04/06 08:34:16;;;;;;;43.07;13.40;;;;;;;36.72;42.86;101240.59;4767299;30;20424;-70
2022/04/06 08:36:43;;;;;;;37.97;14.20;;;;;;;36.60;42.46;101254.53;4767232;30;20428;-69
2022/04/06 08:39:09;;;;;;;30.03;14.07;;;;;;;36.74;42.58;101252.72;4767119;30;20463;-75
2022/04/06 08:41:35;;;;;;;26.67;10.33;;;;;;;36.77;42.46;101256.75;4767026;30;20495;-71
2022/04/06 08:44:01;;;;;;;25.40;9.97;;;;;;;36.87;42.19;101256.66;4767052;30;20928;-71
2022/04/06 08:46:36;;;;;;;31.93;8.97;;;;;;;36.91;42.30;101256.91;4766371;30;20465;-71
2022/04/06 08:49:03;;;;;;;23.60;8.90;;;;;;;36.96;42.09;101246.03;4766665;30;20428;-69
2022/04/06 08:51:32;;;;;;;25.20;8.27;;;;;;;36.93;41.87;101239.28;4766804;30;20854;-70
2022/04/06 08:53:58;;;;;;;23.87;8.67;;;;;;;36.77;41.56;101219.72;4767150;30;20400;-71
2022/04/06 08:56:25;;;;;;;19.33;9.23;;;;;;;36.76;42.17;101210.00;4766903;30;20432;-71
2022/04/06 08:58:51;;;;;;;31.90;10.83;;;;;;;36.74;41.75;101208.69;4769898;30;20963;-72
2022/04/06 09:01:18;;;;;;;28.60;12.27;;;;;;;36.75;42.14;101205.69;4769893;30;20531;-68
2022/04/06 09:03:44;;;;;;;34.37;12.73;;;;;;;36.74;42.00;101193.25;4769885;30;20416;-68
2022/04/06 09:06:12;;;;;;;20.63;9.10;;;;;;;36.74;42.16;101193.25;4769619;30;21012;-69
2022/04/06 09:08:41;;;;;;;26.90;9.20;;;;;;;36.64;41.75;101177.16;4769412;30;20503;-69
2022/04/06 09:11:20;;;;;;;21.17;10.30;;;;;;;36.64;42.03;101176.34;4769595;30;20436;-68
2022/04/06 09:13:48;;;;;;;25.10;10.80;;;;;;;36.67;42.42;101167.69;4767586;30;20481;-69
2022/04/06 09:16:16;;;;;;;21.60;8.20;;;;;;;36.78;41.97;101161.88;4769476;30;20428;-70
2022/04/06 09:18:48;;;;;;;21.60;8.07;;;;;;;36.82;41.80;101165.56;4768923;30;20904;-70
2022/04/06 09:21:19;;;;;;;27.10;9.80;;;;;;;36.88;41.89;101158.22;4769117;30;20452;-70
2022/04/06 09:23:49;;;;;;;34.57;12.20;;;;;;;36.93;41.82;101158.16;4712016;30;1769471;-69
2022/04/06 09:26:19;;;;;;;25.87;10.40;;;;;;;37.04;41.87;101153.41;4770829;30;20198;-70
2022/04/06 09:28:48;;;;;;;31.60;13.77;;;;;;;37.00;42.20;101161.31;4769149;30;20404;-68
2022/04/06 09:31:15;;;;;;;23.13;11.80;;;;;;;37.07;42.15;101156.31;4770179;30;20456;-68
2022/04/06 09:33:43;;;;;;;27.03;9.70;;;;;;;37.04;41.68;101158.81;4770345;30;20454;-71
2022/04/06 09:36:20;;;;;;;26.33;11.43;;;;;;;37.06;41.81;101151.22;4772053;30;20408;-69
2022/04/06 09:38:48;;;;;;;31.83;12.27;;;;;;;37.06;41.81;101151.22;4770650;30;20616;-68
2022/04/06 09:41:15;;;;;;;25.13;11.33;;;;;;;37.23;41.31;101145.28;4770730;30;20515;-68
2022/04/06 09:43:45;;;;;;;26.53;9.10;;;;;;;37.19;42.28;101145.06;4769845;30;20450;-69
2022/04/06 09:49:20;;;;;;;34.53;13.50;;;;;;;36.94;42.70;101131.94;4772243;30;20395;-68
2022/04/06 09:51:50;;;;;;;33.10;12.50;;;;;;;36.94;42.49;101130.03;4771801;30;20444;-69
2022/04/06 09:54:17;;;;;;;27.73;10.57;;;;;;;37.05;42.14;101134.19;4769552;30;20488;-71
2022/04/06 09:56:44;;;;;;;20.90;10.73;;;;;;;37.07;42.33;101125.78;4755573;30;20921;-69
2022/04/06 09:59:13;;;;;;;33.20;12.80;;;;;;;36.99;42.76;101129.94;4769841;30;21002;-68
2022/04/06 10:01:52;;;;;;;29.37;11.33;;;;;;;37.11;42.49;101124.91;4769118;30;20460;-68
2022/04/06 10:04:23;;;;;;;31.50;11.87;;;;;;;37.11;41.84;101124.91;4770158;30;20459;-71
2022/04/06 10:06:49;;;;;;;23.93;9.23;;;;;;;37.19;41.49;101128.81;4770332;30;20823;-70
2022/04/06 10:09:15;;;;;;;22.53;9.87;;;;;;;37.31;41.40;101126.47;4769125;30;20519;-69
2022/04/06 10:11:42;;;;;;;25.47;9.37;;;;;;;37.22;40.97;101112.03;4768841;30;20792;-69
2022/04/06 10:14:10;;;;;;;25.73;10.43;;;;;;;37.21;41.04;101099.59;4770046;30;20429;-69
2022/04/06 10:16:38;;;;;;;19.80;11.20;;;;;;;37.17;41.84;101092.38;4768522;30;20528;-69
2022/04/06 10:19:13;;;;;;;21.00;8.33;;;;;;;37.28;41.47;101080.28;4769297;30;20472;-71
2022/04/06 10:21:59;;;;;;;37.03;11.97;;;;;;;37.42;41.13;101099.28;4767678;30;20605;-68
2022/04/06 10:24:51;;;;;;;23.80;11.00;;;;;;;37.46;41.50;101094.91;4753348;30;20977;-69
2022/04/06 10:27:35;;;;;;;26.40;10.83;;;;;;;37.47;40.97;101105.41;4752261;30;20440;-68
2022/04/06 10:30:19;;;;;;;19.70;11.20;;;;;;;37.41;41.17;101109.31;4752631;30;20875;-68
2022/04/06 10:32:52;;;;;;;35.20;10.67;;;;;;;37.57;41.23;101107.94;4767528;30;20435;-68
2022/04/06 10:35:27;;;;;;;21.50;10.43;;;;;;;37.57;41.25;101112.56;4769701;30;20436;-71
2022/04/06 10:37:56;;;;;;;31.50;8.80;;;;;;;37.51;41.14;101106.44;4769754;30;20967;-70
2022/04/06 10:40:23;;;;;;;19.73;9.73;;;;;;;37.49;40.81;101097.00;4770913;30;20468;-68
2022/04/06 10:42:50;;;;;;;17.23;8.53;;;;;;;37.50;41.27;101096.69;4769646;30;20578;-72
2022/04/06 10:45:26;;;;;;;19.70;8.97;;;;;;;37.51;41.31;101090.19;4769499;30;20436;-70
2022/04/06 10:48:16;;;;;;;16.17;8.83;;;;;;;37.55;41.19;101090.38;4769126;30;20443;-68
2022/04/06 10:50:49;;;;;;;27.13;10.53;;;;;;;37.60;40.43;101088.41;4769604;30;20495;-67
2022/04/06 10:53:21;;;;;;;20.40;9.50;;;;;;;37.67;40.76;101093.41;4770736;30;20440;-70
2022/04/06 10:56:16;;;;;;;24.50;9.53;;;;;;;37.59;40.96;101081.38;4769158;30;20450;-68
2022/04/06 10:59:05;;;;;;;22.13;8.40;;;;;;;37.69;40.73;101079.56;4768092;30;20980;-71
2022/04/06 11:01:33;;;;;;;30.70;10.73;;;;;;;37.70;40.63;101076.59;4768087;30;20508;-70
2022/04/06 11:04:09;;;;;;;19.20;9.03;;;;;;;37.69;40.79;101063.34;4768079;30;20544;-69
2022/04/06 11:06:41;;;;;;;28.57;9.10;;;;;;;37.78;40.20;101058.84;4767891;30;20844;-70
2022/04/06 11:12:41;;;;;;;25.43;8.23;;;;;;;37.76;39.82;101036.69;4752511;30;20401;-71
2022/04/06 11:15:07;;;;;;;18.70;7.77;;;;;;;37.98;39.52;101019.75;4749258;30;20441;-71
2022/04/06 11:17:34;;;;;;;20.00;7.67;;;;;;;38.03;39.11;101016.94;4749505;30;21198;-71
2022/04/06 11:20:13;;;;;;;18.80;6.73;;;;;;;38.13;39.01;101006.69;4750497;30;20469;-71
2022/04/06 11:22:53;;;;;;;22.80;8.83;;;;;;;38.27;38.97;100992.34;4750893;30;20484;-70
2022/04/06 11:25:21;;;;;;;19.37;9.23;;;;;;;38.30;38.39;100989.81;4765468;30;20429;-71